ADDS TAF Board (Experimental) INFO Settings

IDs: Format: Expanded Condensed

KMCO - Orlando Intl, FL, US

Issued at 1720 UTC 27 Mar 2015
Updated at: 1908 UTC 27 Mar 2015
Time1853Z 27/20Z 27/21Z 27/22Z 27/23Z 28/00Z 28/01Z 28/02Z 28/03Z 28/04Z 28/05Z 28/06Z 28/07Z 28/08Z
Type OBS PRVL PRVL PRVL PRVL PRVL PRVL PRVL PRVL PRVL PRVL PRVL PRVL PRVL
VIS 10 >6 >6 >6 >6 >6 >6 >6 >6 >6 >6 >6 >6 >6
CIG 60 50 50 50 50 35 35 35 250 250 250 250 250 250
Cover OVC BKN BKN BKN BKN BKN BKN BKN BKN BKN BKN BKN BKN BKN
FltCat VFR VFR VFR VFR VFR VFR VFR VFR VFR VFR VFR VFR VFR VFR
WX -- VCTS VCTS VCTS VCTS VCSH VCSH VCSH -- -- -- -- -- --
WDir 220 250 250 250 250 280 280 280 300 300 300 300 300 300
WSpd 15 14 14 14 14 13 13 13 11 11 11 11 11 11
WGst 24 -- -- -- -- -- -- -- -- -- -- -- -- --
R17/35
XWnd -10 -13 -13 -13 -13 -13 -13 -13 -9 -9 -9 -9 -9 -9
XGst -16 -- -- -- -- -- -- -- -- -- -- -- -- --
HWnd 11 5 5 5 5 -2 -2 -2 -6 -6 -6 -6 -6 -6
HGst 18 -- -- -- -- -- -- -- -- -- -- -- -- --
R18/36
XWnd -10 -13 -13 -13 -13 -13 -13 -13 -9 -9 -9 -9 -9 -9
XGst -16 -- -- -- -- -- -- -- -- -- -- -- -- --
HWnd 11 5 5 5 5 -2 -2 -2 -6 -6 -6 -6 -6 -6
HGst 18 -- -- -- -- -- -- -- -- -- -- -- -- --

NOTE: TEMPO conditions in [brackets]. Keep in mind TEMPO conditions might be better (lower impact) than prevailing conditions.

Raw TAF
KMCO 271720Z 2718/2818 25014KT P6SM VCTS SCT035CB BKN050
  FM280000 28013KT P6SM VCSH BKN035
  FM280300 30011KT P6SM BKN250


Raw METAR
KMCO 271853Z 22015G24KT 10SM SCT031TCU BKN060 OVC150 27/18 A2980 RMK AO2 SLP091 TCU OHD-SE CB DSNT N MOV NE T02670183
KMCO 271753Z 23017G22KT 10SM SCT038 BKN070 BKN150 OVC250 28/18 A2983 RMK AO2 SLP100 T02780183 10289 20189 58018
KMCO 271653Z 24014G23KT 10SM SCT035 BKN200 BKN250 28/18 A2986 RMK AO2 SLP109 CB DSNT W MOV NE VCSH W-NW T02830183

METAR Board
Radar Display
Forecast Discussion

TAF Board Legend

Potential Impact
Threat None Slight Moderate High
Visibility (sm) ≥5.1 5.1>X≥3 3>X≥1 <1
Ceiling (100 ft) ≥30.1 30.1>X≥10 10>X≥5 <5
Wind Speed (kt) <10 10≤X<20 20≤X<30 ≥30
Wind Gust (kt) <15 15≤X<25 25≤X<35 ≥35
Weather No Wx Reported VCTS,-TS,-FZRA,SN TS,FZRA +TS,+FZRA,+SN